Time;durP1;ratioP1;P1;durP2;ratioP2;P2;SDS_P1;SDS_P2;PMS_P1;PMS_P2;Temp;Humidity;BMP_temperature;BMP_pressure;BME280_temperature;BME280_humidity;BME280_pressure;Samples;Min_cycle;Max_cycle;Signal;HPM_P1;HPM_P2
2024/01/26 00:02:07;;;;;;;4.30;2.30;;;2.00;99.90;;;;;;5055904;28;20200;-83
2024/01/26 00:04:55;;;;;;;3.37;2.10;;;2.00;99.90;;;;;;5054956;28;20583;-83
2024/01/26 00:07:42;;;;;;;3.53;2.30;;;2.00;99.90;;;;;;5055423;28;20335;-83
2024/01/26 00:10:30;;;;;;;3.30;2.30;;;2.00;99.90;;;;;;5041127;28;20217;-83
2024/01/26 00:13:18;;;;;;;3.77;2.10;;;2.10;99.90;;;;;;5055342;28;20291;-83
2024/01/26 00:16:06;;;;;;;2.37;1.93;;;2.00;99.90;;;;;;5056114;28;20588;-83
2024/01/26 00:18:54;;;;;;;3.13;1.97;;;2.00;99.90;;;;;;5054311;28;20639;-83
2024/01/26 00:21:41;;;;;;;3.10;2.00;;;2.00;99.90;;;;;;5053904;28;20562;-83
2024/01/26 00:24:29;;;;;;;3.30;2.10;;;2.00;99.90;;;;;;5055517;28;20420;-83
2024/01/26 00:27:17;;;;;;;3.23;2.20;;;2.00;99.90;;;;;;5055351;28;20317;-83
2024/01/26 00:30:06;;;;;;;3.20;2.40;;;1.90;99.90;;;;;;5053738;28;20241;-83
2024/01/26 00:32:54;;;;;;;2.93;2.00;;;2.00;99.90;;;;;;5054705;28;20292;-83
2024/01/26 00:35:41;;;;;;;2.73;1.90;;;2.00;99.90;;;;;;5053950;28;20197;-83
2024/01/26 00:38:29;;;;;;;3.13;2.00;;;2.00;99.90;;;;;;5053984;28;20357;-83
2024/01/26 00:41:17;;;;;;;2.27;1.70;;;2.00;99.90;;;;;;5053898;28;20211;-83
2024/01/26 00:44:04;;;;;;;4.00;1.97;;;2.00;99.90;;;;;;5053595;28;20199;-83
2024/01/26 00:46:51;;;;;;;2.43;1.90;;;1.90;99.90;;;;;;5053527;28;20249;-83
2024/01/26 00:49:39;;;;;;;3.73;2.20;;;1.90;99.90;;;;;;5040488;28;20201;-83
2024/01/26 00:52:38;;;;;;;3.10;2.03;;;1.90;99.90;;;;;;5054272;28;20538;-83
2024/01/26 00:55:29;;;;;;;3.57;2.10;;;1.90;99.90;;;;;;5053903;28;20293;-83
2024/01/26 00:58:16;;;;;;;2.10;1.83;;;1.90;99.90;;;;;;5055035;28;20217;-84
2024/01/26 01:01:04;;;;;;;5.30;2.10;;;1.90;99.90;;;;;;5038479;28;20194;-83
2024/01/26 01:03:52;;;;;;;3.83;2.10;;;2.00;99.90;;;;;;5053953;28;20195;-83
2024/01/26 01:06:39;;;;;;;2.57;2.10;;;1.90;99.90;;;;;;5054936;28;20364;-83
2024/01/26 01:09:26;;;;;;;5.30;2.10;;;1.90;99.90;;;;;;5054235;28;20195;-83
2024/01/26 01:12:13;;;;;;;2.17;1.93;;;1.90;99.90;;;;;;5053752;28;20218;-83
2024/01/26 01:15:03;;;;;;;2.33;2.10;;;1.90;99.90;;;;;;5053811;28;20194;-83
2024/01/26 01:17:52;;;;;;;2.67;2.13;;;1.90;99.90;;;;;;5053580;28;20715;-82
2024/01/26 01:20:40;;;;;;;2.87;2.00;;;1.90;99.90;;;;;;5053492;28;20198;-83
2024/01/26 01:23:27;;;;;;;3.10;2.00;;;1.80;99.90;;;;;;5053450;28;20282;-83
2024/01/26 01:26:16;;;;;;;2.10;1.90;;;1.80;99.90;;;;;;5039695;28;20221;-83
2024/01/26 01:29:03;;;;;;;2.20;1.93;;;1.80;99.90;;;;;;5052629;28;20626;-83
2024/01/26 01:31:51;;;;;;;3.37;2.27;;;1.80;99.90;;;;;;5054068;28;20194;-83
2024/01/26 01:34:39;;;;;;;2.53;2.10;;;1.80;99.90;;;;;;5053606;28;20201;-82
2024/01/26 01:37:28;;;;;;;3.37;2.30;;;1.80;99.90;;;;;;5052171;28;20195;-83
2024/01/26 01:40:15;;;;;;;2.53;2.13;;;1.90;99.90;;;;;;5053761;28;20217;-82
2024/01/26 01:43:02;;;;;;;3.03;2.30;;;1.90;99.90;;;;;;5052537;28;20358;-83
2024/01/26 01:45:50;;;;;;;3.23;2.20;;;1.90;99.90;;;;;;5051980;28;20194;-83
2024/01/26 01:48:37;;;;;;;3.80;2.40;;;1.90;99.90;;;;;;5053764;28;20255;-83
2024/01/26 01:51:26;;;;;;;3.00;2.40;;;1.80;99.90;;;;;;5053556;28;20194;-83
2024/01/26 01:54:15;;;;;;;2.80;2.30;;;1.80;99.90;;;;;;5053020;28;20205;-83
2024/01/26 01:57:03;;;;;;;2.97;2.13;;;1.70;99.90;;;;;;5051267;28;20319;-83
2024/01/26 01:59:51;;;;;;;2.70;2.00;;;1.70;99.90;;;;;;5052197;28;20195;-83
2024/01/26 02:02:38;;;;;;;1.90;1.67;;;1.70;99.90;;;;;;5052991;28;20195;-83
2024/01/26 02:05:25;;;;;;;3.27;1.93;;;1.70;99.90;;;;;;5038878;28;20313;-83
2024/01/26 02:08:13;;;;;;;2.27;1.80;;;1.70;99.90;;;;;;5051931;28;20218;-83
2024/01/26 02:11:01;;;;;;;1.93;1.70;;;1.70;99.90;;;;;;5053671;28;20242;-83
2024/01/26 02:13:48;;;;;;;2.70;1.80;;;1.70;99.90;;;;;;5050954;28;20658;-83
2024/01/26 02:16:35;;;;;;;2.00;1.50;;;1.70;99.90;;;;;;5053045;28;20191;-83
2024/01/26 02:19:24;;;;;;;1.80;1.70;;;1.70;99.90;;;;;;5053788;28;20294;-83
2024/01/26 02:22:12;;;;;;;2.73;1.80;;;1.70;99.90;;;;;;5033898;28;20197;-83
2024/01/26 02:25:01;;;;;;;2.90;2.00;;;1.70;99.90;;;;;;5038082;28;20703;-84
2024/01/26 02:27:54;;;;;;;2.33;1.90;;;1.70;99.90;;;;;;5052064;28;20312;-84
2024/01/26 02:30:41;;;;;;;2.67;1.97;;;1.70;99.90;;;;;;5052143;28;20200;-84
2024/01/26 02:33:29;;;;;;;2.30;2.00;;;1.70;99.90;;;;;;5052918;28;20203;-84
2024/01/26 02:36:16;;;;;;;2.90;2.10;;;1.70;99.90;;;;;;5052777;28;20194;-84
2024/01/26 02:39:05;;;;;;;3.40;2.40;;;1.70;99.90;;;;;;5053288;28;20202;-84
2024/01/26 02:41:53;;;;;;;2.70;2.30;;;1.80;99.90;;;;;;5051908;28;20726;-84
2024/01/26 02:44:40;;;;;;;3.20;2.70;;;1.80;99.90;;;;;;5052191;28;20213;-84
2024/01/26 02:47:28;;;;;;;2.57;2.20;;;1.80;99.90;;;;;;5052332;28;20252;-84
2024/01/26 02:50:15;;;;;;;2.33;2.07;;;1.80;99.90;;;;;;5051447;28;20195;-83
2024/01/26 02:53:03;;;;;;;2.10;1.87;;;1.80;99.90;;;;;;5051981;28;20279;-83
2024/01/26 02:55:50;;;;;;;3.20;2.27;;;1.80;99.90;;;;;;5051407;28;20765;-83
2024/01/26 02:58:38;;;;;;;2.47;2.07;;;1.80;99.90;;;;;;5052167;28;20652;-83
2024/01/26 03:01:25;;;;;;;2.20;2.00;;;1.80;99.90;;;;;;5050935;28;20198;-84
2024/01/26 03:04:13;;;;;;;2.67;2.00;;;1.90;99.90;;;;;;5050461;28;20200;-83
2024/01/26 03:07:00;;;;;;;3.10;2.40;;;1.90;99.90;;;;;;5051714;28;20375;-84
2024/01/26 03:09:48;;;;;;;2.10;1.80;;;1.80;99.90;;;;;;5037143;28;20208;-84
2024/01/26 03:12:35;;;;;;;3.10;2.50;;;1.80;99.90;;;;;;5038137;28;20225;-84
2024/01/26 03:15:23;;;;;;;3.33;2.33;;;1.80;99.90;;;;;;5052265;28;20280;-84
2024/01/26 03:18:10;;;;;;;4.17;2.97;;;1.80;99.90;;;;;;5052860;28;20393;-83
2024/01/26 03:20:58;;;;;;;4.23;2.80;;;1.80;99.90;;;;;;5052198;28;20276;-83
2024/01/26 03:23:45;;;;;;;3.47;2.70;;;1.80;99.90;;;;;;5052204;28;20200;-83
2024/01/26 03:26:33;;;;;;;2.97;2.53;;;1.90;99.90;;;;;;5036587;28;20297;-83
2024/01/26 03:29:22;;;;;;;3.17;2.50;;;1.90;99.90;;;;;;5054299;28;20225;-81
2024/01/26 03:32:09;;;;;;;3.93;2.47;;;1.80;99.90;;;;;;5058017;28;20191;-82
2024/01/26 03:34:57;;;;;;;3.10;2.50;;;1.80;99.90;;;;;;5056859;28;20299;-81
2024/01/26 03:37:44;;;;;;;3.60;2.53;;;1.80;99.90;;;;;;5045605;28;20197;-81
2024/01/26 03:40:32;;;;;;;3.07;2.53;;;1.80;99.90;;;;;;5044031;28;20193;-82
2024/01/26 03:43:20;;;;;;;3.07;2.47;;;1.70;99.90;;;;;;5056589;28;20205;-81
2024/01/26 03:46:08;;;;;;;4.43;2.40;;;1.80;99.90;;;;;;5055507;28;20671;-84
2024/01/26 03:48:55;;;;;;;3.17;2.10;;;1.80;99.90;;;;;;5053744;28;20218;-83
2024/01/26 03:51:43;;;;;;;3.47;2.53;;;1.90;99.90;;;;;;5054067;28;20204;-83
2024/01/26 03:54:30;;;;;;;3.10;2.60;;;1.80;99.90;;;;;;5054479;28;20241;-84
2024/01/26 03:57:17;;;;;;;4.13;2.90;;;1.80;99.90;;;;;;5053228;28;20219;-83
2024/01/26 04:00:06;;;;;;;3.20;2.47;;;1.80;99.90;;;;;;5051229;28;20198;-84
2024/01/26 04:02:53;;;;;;;5.50;2.60;;;1.70;99.90;;;;;;5035661;28;20298;-84
2024/01/26 04:05:42;;;;;;;3.67;2.63;;;1.80;99.90;;;;;;5050830;28;20259;-84
2024/01/26 04:08:30;;;;;;;4.10;2.60;;;1.70;99.90;;;;;;5050525;28;20215;-83
2024/01/26 04:11:18;;;;;;;3.97;2.30;;;1.80;99.90;;;;;;5052706;28;20300;-84
2024/01/26 04:14:05;;;;;;;2.97;2.40;;;1.80;99.90;;;;;;5050534;28;20276;-83
2024/01/26 04:16:53;;;;;;;3.40;2.53;;;1.70;99.90;;;;;;5051227;28;20325;-83
2024/01/26 04:19:40;;;;;;;3.03;2.53;;;1.70;99.90;;;;;;5049981;28;20201;-83
2024/01/26 04:22:28;;;;;;;2.57;2.23;;;1.70;99.90;;;;;;5052381;28;20268;-84
2024/01/26 04:25:15;;;;;;;2.40;2.20;;;1.70;99.90;;;;;;5055208;28;20208;-84
2024/01/26 04:28:03;;;;;;;3.33;2.60;;;1.60;99.90;;;;;;5053910;28;20587;-83
2024/01/26 04:30:51;;;;;;;4.10;2.00;;;1.60;99.90;;;;;;5054031;28;20684;-83
2024/01/26 04:33:38;;;;;;;2.53;2.17;;;1.60;99.90;;;;;;5054492;28;20230;-84
2024/01/26 04:36:27;;;;;;;2.80;2.20;;;1.50;99.90;;;;;;5054495;28;20586;-83
2024/01/26 04:39:15;;;;;;;2.27;2.07;;;1.50;99.90;;;;;;5054550;28;20630;-84
2024/01/26 04:42:03;;;;;;;3.83;2.10;;;1.50;99.90;;;;;;5052927;28;20686;-84
2024/01/26 04:44:51;;;;;;;2.57;2.17;;;1.50;99.90;;;;;;5052105;28;20218;-83
2024/01/26 04:47:39;;;;;;;3.13;1.90;;;1.60;99.90;;;;;;5055096;28;20210;-84
2024/01/26 04:50:26;;;;;;;2.30;2.10;;;1.60;99.90;;;;;;5053743;28;20215;-83
2024/01/26 04:53:15;;;;;;;2.97;2.20;;;1.70;99.90;;;;;;5053587;28;20194;-83
2024/01/26 04:56:03;;;;;;;2.70;2.03;;;1.70;99.90;;;;;;5053972;28;20197;-83
2024/01/26 04:58:50;;;;;;;2.77;2.10;;;1.70;99.90;;;;;;5052929;28;20274;-84
2024/01/26 05:01:38;;;;;;;3.40;2.10;;;1.70;99.90;;;;;;5053724;28;20201;-83
2024/01/26 05:04:25;;;;;;;3.40;2.20;;;1.70;99.90;;;;;;5053804;28;20287;-84
2024/01/26 05:07:13;;;;;;;3.23;2.13;;;1.70;99.90;;;;;;5040346;28;20666;-84
2024/01/26 05:10:01;;;;;;;3.73;2.20;;;1.70;99.90;;;;;;5053226;28;20200;-84
2024/01/26 05:12:48;;;;;;;2.37;2.10;;;1.60;99.90;;;;;;5040017;28;20214;-84
2024/01/26 05:15:36;;;;;;;2.20;1.80;;;1.70;99.90;;;;;;5053175;28;20204;-84
2024/01/26 05:18:23;;;;;;;3.00;2.30;;;1.60;99.90;;;;;;5053678;28;20280;-84
2024/01/26 05:21:11;;;;;;;2.50;2.00;;;1.60;99.90;;;;;;5053445;28;20197;-84
2024/01/26 05:23:58;;;;;;;2.43;1.80;;;1.50;99.90;;;;;;5053557;28;20605;-84
2024/01/26 05:26:46;;;;;;;2.37;1.90;;;1.60;99.90;;;;;;5053537;28;20209;-84
2024/01/26 05:29:33;;;;;;;2.37;2.03;;;1.60;99.90;;;;;;5053600;28;20222;-83
2024/01/26 05:32:22;;;;;;;1.70;1.60;;;1.60;99.90;;;;;;5051376;28;20198;-83
2024/01/26 05:35:09;;;;;;;2.27;1.90;;;1.60;99.90;;;;;;5039146;28;20203;-83
2024/01/26 05:37:57;;;;;;;3.43;1.87;;;1.70;99.90;;;;;;5053867;28;20198;-83
2024/01/26 05:40:45;;;;;;;2.87;1.80;;;1.60;99.90;;;;;;5052748;28;20202;-83
2024/01/26 05:43:33;;;;;;;2.53;1.83;;;1.60;99.90;;;;;;5052966;28;20199;-83
2024/01/26 05:46:20;;;;;;;2.53;1.77;;;1.60;99.90;;;;;;5052578;28;20237;-83
2024/01/26 05:49:07;;;;;;;2.50;1.90;;;1.70;99.90;;;;;;5053489;28;20678;-82
2024/01/26 05:51:56;;;;;;;2.10;1.80;;;1.60;99.90;;;;;;5038385;28;20299;-82
2024/01/26 05:54:43;;;;;;;2.67;2.03;;;1.60;99.90;;;;;;5053450;28;20669;-83
2024/01/26 05:57:30;;;;;;;2.63;1.93;;;1.60;99.90;;;;;;5037493;28;20234;-83
2024/01/26 06:00:18;;;;;;;2.60;2.10;;;1.60;99.90;;;;;;5053238;28;20276;-82
2024/01/26 06:03:05;;;;;;;2.13;1.90;;;1.60;99.90;;;;;;5053259;28;20321;-82
2024/01/26 06:05:53;;;;;;;2.40;1.87;;;1.70;99.90;;;;;;5038974;28;20571;-83
2024/01/26 06:08:42;;;;;;;2.10;1.90;;;1.70;99.90;;;;;;5053727;28;20228;-82
2024/01/26 06:11:33;;;;;;;2.30;2.10;;;1.70;99.90;;;;;;5052975;28;20218;-83
2024/01/26 06:14:20;;;;;;;2.63;2.10;;;1.70;99.90;;;;;;5039380;28;20191;-82
2024/01/26 06:17:07;;;;;;;2.43;2.00;;;1.60;99.90;;;;;;5053855;28;20672;-83
2024/01/26 06:19:55;;;;;;;3.13;2.23;;;1.60;99.90;;;;;;5038273;28;20194;-83
2024/01/26 06:22:43;;;;;;;2.20;2.00;;;1.60;99.90;;;;;;5052283;28;20205;-83
2024/01/26 06:25:32;;;;;;;3.07;1.80;;;1.50;99.90;;;;;;5038739;28;20650;-82
2024/01/26 06:28:20;;;;;;;1.97;1.77;;;1.40;99.90;;;;;;5037392;28;20226;-83
2024/01/26 06:31:07;;;;;;;1.90;1.53;;;1.40;99.90;;;;;;5053166;28;20541;-83
2024/01/26 06:33:55;;;;;;;2.20;1.70;;;1.40;99.90;;;;;;5052182;28;20214;-83
2024/01/26 06:36:43;;;;;;;1.60;1.50;;;1.40;99.90;;;;;;5038128;28;20604;-83
2024/01/26 06:39:33;;;;;;;2.43;1.47;;;1.40;99.90;;;;;;5052023;28;20260;-83
2024/01/26 06:42:25;;;;;;;2.13;1.47;;;1.50;99.90;;;;;;5038937;28;20225;-84
2024/01/26 06:45:13;;;;;;;1.97;1.43;;;1.50;99.90;;;;;;5051942;28;20600;-83
2024/01/26 06:48:01;;;;;;;2.03;1.40;;;1.50;99.90;;;;;;5051527;28;20222;-84
2024/01/26 06:50:48;;;;;;;1.33;1.23;;;1.60;99.90;;;;;;5053013;28;20210;-85
2024/01/26 06:53:36;;;;;;;1.90;1.60;;;1.60;99.90;;;;;;5052370;28;20205;-84
2024/01/26 06:56:23;;;;;;;2.10;1.47;;;1.50;99.90;;;;;;5052049;28;20579;-81
2024/01/26 06:59:11;;;;;;;1.70;1.47;;;1.60;99.90;;;;;;5052429;28;20281;-88
2024/01/26 07:01:59;;;;;;;1.90;1.70;;;1.60;99.90;;;;;;5051389;28;20197;-84
2024/01/26 07:04:47;;;;;;;1.70;1.50;;;1.60;99.90;;;;;;5038098;28;20375;-83
2024/01/26 07:07:34;;;;;;;1.60;1.50;;;1.60;99.90;;;;;;5052562;28;20238;-83
2024/01/26 07:10:21;;;;;;;1.60;1.50;;;1.70;99.90;;;;;;5052239;28;20196;-83
2024/01/26 07:13:09;;;;;;;2.30;1.40;;;1.70;99.90;;;;;;5051722;28;20211;-82
2024/01/26 07:15:56;;;;;;;3.43;1.50;;;1.60;99.90;;;;;;5052755;28;20702;-83
2024/01/26 07:18:44;;;;;;;2.03;1.60;;;1.60;99.90;;;;;;5050965;28;20708;-83
2024/01/26 07:21:31;;;;;;;1.77;1.60;;;1.60;99.90;;;;;;5051073;28;20297;-83
2024/01/26 07:24:19;;;;;;;2.53;1.43;;;1.60;99.90;;;;;;5051363;28;20788;-82
2024/01/26 07:27:06;;;;;;;4.13;1.60;;;1.50;99.90;;;;;;5051427;28;20276;-82
2024/01/26 07:29:54;;;;;;;2.00;1.80;;;1.50;99.90;;;;;;5023811;28;20295;-83
2024/01/26 07:32:41;;;;;;;1.90;1.50;;;1.60;99.90;;;;;;5052459;28;20580;-83
2024/01/26 07:35:29;;;;;;;2.40;1.50;;;1.80;99.90;;;;;;5051956;28;20199;-83
2024/01/26 07:38:17;;;;;;;2.97;1.70;;;1.80;99.90;;;;;;5051849;28;20202;-83
2024/01/26 07:41:04;;;;;;;3.23;1.80;;;1.80;99.90;;;;;;5051232;28;20191;-83
2024/01/26 07:43:51;;;;;;;2.90;1.90;;;1.70;99.90;;;;;;5051433;28;20650;-83
2024/01/26 07:46:41;;;;;;;4.33;2.40;;;1.80;99.90;;;;;;5037705;28;20195;-82
2024/01/26 07:49:28;;;;;;;3.80;2.10;;;1.80;99.90;;;;;;5036545;28;20260;-83
2024/01/26 07:52:21;;;;;;;2.63;1.93;;;1.80;99.90;;;;;;5049005;28;20186;-83
2024/01/26 07:55:09;;;;;;;3.53;2.10;;;1.80;99.90;;;;;;5051285;28;20281;-82
2024/01/26 07:57:56;;;;;;;4.60;2.33;;;1.70;99.90;;;;;;5055993;28;20219;-84
2024/01/26 08:00:44;;;;;;;2.93;2.27;;;1.70;99.90;;;;;;5056210;28;20550;-84
2024/01/26 08:03:32;;;;;;;3.00;2.53;;;1.70;99.90;;;;;;5054483;28;20193;-84
2024/01/26 08:06:20;;;;;;;3.77;2.70;;;1.80;99.90;;;;;;5056063;28;20191;-83
2024/01/26 08:09:10;;;;;;;5.20;2.60;;;1.70;99.90;;;;;;5052498;28;20716;-80
2024/01/26 08:11:58;;;;;;;3.87;2.70;;;1.70;99.90;;;;;;5055403;28;20588;-79
2024/01/26 08:14:47;;;;;;;4.10;2.90;;;1.80;99.90;;;;;;5041150;28;20199;-84
2024/01/26 08:17:36;;;;;;;3.10;2.77;;;1.90;99.90;;;;;;5039557;28;20599;-84
2024/01/26 08:20:25;;;;;;;4.83;2.77;;;2.00;99.90;;;;;;5040526;28;20222;-84
2024/01/26 08:23:13;;;;;;;6.73;3.20;;;2.00;99.90;;;;;;5054132;28;20212;-84
2024/01/26 08:26:01;;;;;;;3.10;2.70;;;1.90;99.90;;;;;;5040860;28;20194;-84
2024/01/26 08:28:49;;;;;;;4.00;2.83;;;2.10;99.90;;;;;;5054454;28;20218;-85
2024/01/26 08:31:36;;;;;;;5.37;3.40;;;2.20;99.90;;;;;;5056066;28;20236;-84
2024/01/26 08:34:24;;;;;;;3.70;3.17;;;2.20;99.90;;;;;;5055103;28;20194;-85
2024/01/26 08:37:12;;;;;;;5.07;3.27;;;2.20;99.90;;;;;;5040399;28;20198;-86
2024/01/26 08:39:59;;;;;;;4.13;2.90;;;2.10;99.90;;;;;;5054380;28;20765;-85
2024/01/26 08:42:47;;;;;;;4.40;3.33;;;2.00;99.90;;;;;;5053458;28;20207;-84
2024/01/26 08:45:35;;;;;;;4.50;3.07;;;1.90;99.90;;;;;;5053767;28;20191;-85
2024/01/26 08:48:22;;;;;;;8.73;4.47;;;1.80;99.90;;;;;;5054123;28;20297;-85
2024/01/26 08:51:10;;;;;;;5.07;3.30;;;1.80;99.90;;;;;;5053482;28;20666;-85
2024/01/26 08:53:57;;;;;;;4.67;3.23;;;1.90;99.90;;;;;;5053024;28;20201;-84
2024/01/26 08:56:45;;;;;;;5.77;3.27;;;2.00;99.90;;;;;;5053414;28;20307;-84
2024/01/26 08:59:32;;;;;;;5.30;3.53;;;2.10;99.90;;;;;;5054529;28;20715;-85
2024/01/26 09:02:20;;;;;;;4.17;3.23;;;2.20;99.90;;;;;;5039100;28;20221;-83
2024/01/26 09:05:09;;;;;;;6.07;3.43;;;2.20;99.90;;;;;;5054516;28;20354;-84
2024/01/26 09:07:57;;;;;;;4.73;3.33;;;2.20;99.90;;;;;;5053664;28;20213;-84
2024/01/26 09:10:45;;;;;;;4.40;3.33;;;2.30;99.90;;;;;;5054062;28;20201;-83
2024/01/26 09:13:32;;;;;;;5.43;4.30;;;2.40;99.90;;;;;;5053628;28;20207;-81
2024/01/26 09:16:20;;;;;;;3.93;3.50;;;2.30;99.90;;;;;;5054201;28;20202;-82
2024/01/26 09:19:10;;;;;;;5.20;3.77;;;2.20;99.90;;;;;;5038639;28;20198;-82
2024/01/26 09:21:57;;;;;;;7.10;3.90;;;2.20;99.90;;;;;;5040796;28;20198;-84
2024/01/26 09:24:44;;;;;;;5.60;3.83;;;2.20;99.90;;;;;;5053564;28;20791;-84
2024/01/26 09:27:32;;;;;;;4.90;3.70;;;2.10;99.90;;;;;;5039277;28;20214;-84
2024/01/26 09:30:19;;;;;;;6.03;3.60;;;2.30;99.90;;;;;;5053555;28;20285;-83
2024/01/26 09:33:11;;;;;;;5.73;3.37;;;2.20;99.90;;;;;;5055140;28;20207;-83
2024/01/26 09:35:59;;;;;;;6.60;3.90;;;2.10;99.90;;;;;;5054405;28;20311;-85
2024/01/26 09:38:47;;;;;;;10.93;3.70;;;2.30;99.90;;;;;;5046190;28;20595;-84
2024/01/26 09:41:34;;;;;;;4.93;3.20;;;2.50;99.90;;;;;;5040014;28;20764;-85
2024/01/26 09:44:22;;;;;;;4.07;3.20;;;2.70;99.90;;;;;;5053840;28;20209;-84
2024/01/26 09:47:14;;;;;;;5.43;3.37;;;2.60;99.90;;;;;;5053075;28;20678;-84
2024/01/26 09:50:05;;;;;;;5.90;3.20;;;2.40;99.90;;;;;;5038931;28;20294;-84
2024/01/26 09:52:54;;;;;;;3.87;3.07;;;2.30;99.90;;;;;;5054176;28;20674;-84
2024/01/26 09:55:41;;;;;;;4.93;3.30;;;2.20;99.90;;;;;;5053142;28;20237;-84
2024/01/26 09:58:29;;;;;;;5.27;3.17;;;2.50;99.90;;;;;;5052980;28;20651;-83
2024/01/26 10:01:21;;;;;;;3.83;2.67;;;2.40;99.90;;;;;;5052824;28;20202;-85
2024/01/26 10:04:09;;;;;;;4.37;3.17;;;2.30;99.90;;;;;;5052565;28;20682;-83
2024/01/26 10:06:57;;;;;;;6.57;2.90;;;2.50;99.90;;;;;;5038682;28;20667;-82
2024/01/26 10:09:45;;;;;;;4.63;2.90;;;2.70;99.90;;;;;;5052084;28;20325;-83
2024/01/26 10:12:34;;;;;;;4.93;2.57;;;2.80;99.90;;;;;;5052641;28;20223;-82
2024/01/26 10:15:21;;;;;;;4.53;2.83;;;3.00;99.90;;;;;;5053562;28;20332;-83
2024/01/26 10:18:09;;;;;;;4.33;2.97;;;3.00;99.90;;;;;;5038916;28;20191;-84
2024/01/26 10:20:57;;;;;;;10.07;3.03;;;3.10;99.90;;;;;;5037489;28;20282;-83
2024/01/26 10:23:46;;;;;;;4.50;2.60;;;2.90;99.90;;;;;;5043999;28;20198;-83
2024/01/26 10:26:34;;;;;;;4.33;2.80;;;3.00;99.90;;;;;;5052219;28;20210;-84
2024/01/26 10:29:23;;;;;;;4.07;2.37;;;3.10;99.90;;;;;;5038693;28;20234;-83
2024/01/26 10:32:13;;;;;;;3.87;2.60;;;3.00;99.90;;;;;;5038114;28;20281;-83
2024/01/26 10:35:05;;;;;;;3.83;2.60;;;2.90;99.90;;;;;;5031599;28;20191;-83
2024/01/26 10:37:52;;;;;;;3.53;2.50;;;2.90;99.90;;;;;;5052223;28;20206;-84
2024/01/26 10:40:44;;;;;;;4.30;2.50;;;2.70;99.90;;;;;;5038932;28;20587;-84
2024/01/26 10:43:32;;;;;;;2.90;2.30;;;2.70;99.90;;;;;;5053281;28;20195;-84
2024/01/26 10:46:20;;;;;;;3.73;2.73;;;2.70;99.90;;;;;;5052136;28;20199;-86
2024/01/26 10:49:09;;;;;;;2.70;2.27;;;2.90;99.90;;;;;;5052374;28;20249;-85
2024/01/26 10:52:00;;;;;;;3.30;2.57;;;3.00;99.90;;;;;;5051866;28;20260;-85
2024/01/26 10:54:50;;;;;;;5.43;3.27;;;2.80;99.90;;;;;;5053397;28;20689;-84
2024/01/26 10:57:37;;;;;;;4.00;2.60;;;2.90;99.90;;;;;;5051840;28;20231;-83
2024/01/26 11:00:25;;;;;;;4.10;2.97;;;3.00;99.90;;;;;;5052984;28;20517;-84
2024/01/26 11:03:16;;;;;;;3.17;2.60;;;3.00;99.90;;;;;;5050773;28;20199;-85
2024/01/26 11:06:08;;;;;;;3.63;2.67;;;3.00;99.90;;;;;;5038732;28;20237;-83
2024/01/26 11:08:59;;;;;;;4.30;2.93;;;3.20;99.90;;;;;;5052084;28;20295;-84
2024/01/26 11:11:57;;;;;;;4.80;2.70;;;3.20;99.90;;;;;;5054881;28;20301;-84
2024/01/26 11:14:46;;;;;;;5.00;2.90;;;3.10;99.90;;;;;;5052091;28;20576;-83
2024/01/26 11:17:50;;;;;;;4.70;3.23;;;3.00;99.90;;;;;;5039161;28;20203;-83
2024/01/26 11:20:37;;;;;;;3.97;2.77;;;3.10;99.90;;;;;;5061213;28;20208;-83
2024/01/26 11:23:25;;;;;;;4.60;2.80;;;3.20;99.90;;;;;;5058572;28;20199;-82
2024/01/26 11:26:17;;;;;;;3.30;2.90;;;3.30;99.90;;;;;;5059863;28;20205;-82
2024/01/26 11:29:14;;;;;;;5.33;2.90;;;3.30;99.90;;;;;;5056692;28;20214;-83
2024/01/26 11:32:17;;;;;;;4.23;3.00;;;3.10;99.90;;;;;;5056875;28;20199;-83
2024/01/26 11:35:06;;;;;;;5.43;3.03;;;3.00;99.90;;;;;;5057356;28;20211;-83
2024/01/26 11:37:58;;;;;;;5.23;2.80;;;3.10;99.90;;;;;;5043033;28;20571;-83
2024/01/26 11:40:45;;;;;;;3.73;2.80;;;3.00;99.90;;;;;;5055455;28;20209;-83
2024/01/26 11:43:43;;;;;;;25.60;4.80;;;3.10;99.90;;;;;;5055885;28;20198;-82
2024/01/26 11:46:32;;;;;;;3.83;2.67;;;3.10;99.90;;;;;;5055618;28;20288;-84
2024/01/26 11:49:20;;;;;;;3.30;2.60;;;3.20;99.90;;;;;;5040526;28;20253;-83
2024/01/26 11:52:08;;;;;;;3.80;2.80;;;3.20;99.90;;;;;;5056547;28;20646;-83
2024/01/26 11:54:56;;;;;;;3.63;2.63;;;3.40;99.90;;;;;;5055167;28;20560;-82
2024/01/26 11:57:44;;;;;;;3.27;2.67;;;3.20;99.90;;;;;;5054491;28;20212;-83
2024/01/26 12:00:34;;;;;;;4.07;3.00;;;3.10;99.90;;;;;;5041521;28;20877;-83
2024/01/26 12:03:22;;;;;;;5.70;2.93;;;3.00;99.90;;;;;;5054482;28;20201;-83
2024/01/26 12:06:12;;;;;;;4.17;2.90;;;2.90;99.90;;;;;;5055281;28;20229;-83
2024/01/26 12:09:00;;;;;;;4.60;3.10;;;3.00;99.90;;;;;;5055786;28;20226;-83
2024/01/26 12:11:48;;;;;;;5.33;3.03;;;3.00;99.90;;;;;;5055538;28;20215;-84
2024/01/26 12:14:37;;;;;;;4.63;3.10;;;2.90;99.90;;;;;;5026756;28;20195;-84
2024/01/26 12:17:24;;;;;;;5.07;3.37;;;2.90;99.90;;;;;;5041470;28;20199;-83
2024/01/26 12:20:12;;;;;;;5.07;3.23;;;2.60;99.90;;;;;;5055182;28;20200;-84
2024/01/26 12:22:59;;;;;;;7.60;3.70;;;2.80;99.90;;;;;;5054913;28;20186;-84
2024/01/26 12:25:51;;;;;;;4.60;3.70;;;3.00;99.90;;;;;;5040230;28;20202;-84
2024/01/26 12:28:38;;;;;;;5.67;3.70;;;3.20;99.90;;;;;;5054054;28;20277;-84
2024/01/26 12:31:28;;;;;;;7.40;4.60;;;3.10;99.90;;;;;;5054795;28;20239;-84
2024/01/26 12:34:15;;;;;;;5.27;3.90;;;3.10;99.90;;;;;;5054408;28;20566;-83
2024/01/26 12:37:10;;;;;;;6.60;4.27;;;3.10;99.90;;;;;;5040693;28;20198;-83
2024/01/26 12:39:58;;;;;;;7.07;4.03;;;3.00;99.90;;;;;;5054263;28;20195;-83
2024/01/26 12:42:45;;;;;;;6.10;4.27;;;2.80;99.90;;;;;;5040101;28;20277;-81
2024/01/26 12:45:33;;;;;;;5.67;4.27;;;2.90;99.90;;;;;;5054055;28;20206;-83
2024/01/26 12:48:20;;;;;;;6.80;4.27;;;3.00;99.90;;;;;;5053421;28;20203;-83
2024/01/26 12:51:08;;;;;;;5.17;4.40;;;2.90;99.90;;;;;;5055464;28;20351;-83
2024/01/26 12:53:56;;;;;;;7.03;4.70;;;2.80;99.90;;;;;;5039951;28;20195;-85
2024/01/26 12:56:43;;;;;;;6.40;4.37;;;2.70;99.90;;;;;;5054828;28;20461;-82
2024/01/26 12:59:31;;;;;;;7.47;4.60;;;2.80;99.90;;;;;;5040866;28;20222;-82
2024/01/26 13:02:18;;;;;;;6.90;4.80;;;2.80;99.90;;;;;;5053921;28;20195;-82
2024/01/26 13:05:08;;;;;;;6.87;5.10;;;2.70;99.90;;;;;;5054256;28;20226;-82
2024/01/26 13:07:56;;;;;;;8.47;4.93;;;2.70;99.90;;;;;;5040356;28;20194;-83
2024/01/26 13:10:43;;;;;;;6.93;4.77;;;2.60;99.90;;;;;;5054100;28;20215;-82
2024/01/26 13:13:31;;;;;;;7.33;5.03;;;2.60;99.90;;;;;;5054909;28;20593;-84
2024/01/26 13:16:18;;;;;;;7.43;4.10;;;2.70;99.90;;;;;;5054438;28;20230;-82
2024/01/26 13:19:05;;;;;;;5.10;3.97;;;2.60;99.90;;;;;;5054644;28;20239;-83
2024/01/26 13:21:56;;;;;;;5.47;3.70;;;2.50;99.90;;;;;;5054555;28;20195;-83
2024/01/26 13:24:44;;;;;;;5.83;4.00;;;2.50;99.90;;;;;;5039188;28;20193;-82
2024/01/26 13:27:32;;;;;;;8.10;4.13;;;2.30;99.90;;;;;;5040280;28;20268;-82
2024/01/26 13:30:19;;;;;;;6.37;4.20;;;2.40;99.90;;;;;;5053402;28;20211;-82
2024/01/26 13:33:07;;;;;;;6.77;4.30;;;2.40;99.90;;;;;;5054421;28;20543;-83
2024/01/26 13:35:55;;;;;;;7.30;4.50;;;2.40;99.90;;;;;;5053211;28;20201;-82
2024/01/26 13:38:42;;;;;;;6.93;4.13;;;2.40;99.90;;;;;;5039811;28;20562;-83
2024/01/26 13:41:29;;;;;;;10.30;4.90;;;2.40;99.90;;;;;;5053696;28;20260;-83
2024/01/26 13:44:17;;;;;;;7.17;4.50;;;2.40;99.90;;;;;;5054406;28;20191;-83
2024/01/26 13:47:04;;;;;;;7.10;4.67;;;2.30;99.90;;;;;;5054744;28;20272;-83
2024/01/26 13:49:54;;;;;;;7.63;4.50;;;2.30;99.90;;;;;;5039694;28;20215;-83
2024/01/26 13:52:41;;;;;;;6.70;4.90;;;2.40;99.90;;;;;;5038859;28;20195;-83
2024/01/26 13:55:29;;;;;;;7.47;5.10;;;2.30;99.90;;;;;;5052681;28;20197;-83
2024/01/26 13:58:17;;;;;;;8.80;5.13;;;2.30;99.90;;;;;;5052111;28;20232;-84
2024/01/26 14:01:04;;;;;;;6.70;4.50;;;2.40;99.90;;;;;;5039614;28;20186;-83
2024/01/26 14:03:53;;;;;;;7.23;4.80;;;2.30;99.90;;;;;;5038313;28;20797;-83
2024/01/26 14:06:42;;;;;;;7.73;5.23;;;2.40;99.90;;;;;;5038333;28;20202;-83
2024/01/26 14:09:30;;;;;;;11.40;5.57;;;2.30;99.90;;;;;;5053099;28;20289;-83
2024/01/26 14:12:18;;;;;;;8.50;5.33;;;2.30;99.90;;;;;;5038648;28;20584;-83
2024/01/26 14:15:09;;;;;;;7.27;5.03;;;2.40;99.90;;;;;;5053841;28;20332;-83
2024/01/26 14:17:58;;;;;;;9.30;5.20;;;2.50;99.90;;;;;;5052855;28;20680;-83
2024/01/26 14:20:46;;;;;;;10.60;5.33;;;2.40;99.90;;;;;;5051616;28;20232;-83
2024/01/26 14:23:35;;;;;;;9.73;5.13;;;2.50;99.90;;;;;;5038328;28;20610;-83
2024/01/26 14:26:26;;;;;;;9.60;5.53;;;2.60;99.90;;;;;;5038111;28;20211;-83
2024/01/26 14:29:17;;;;;;;8.60;5.83;;;2.50;99.90;;;;;;5038599;28;20202;-84
2024/01/26 14:32:05;;;;;;;11.47;6.03;;;2.40;99.90;;;;;;5038189;28;20680;-84
2024/01/26 14:34:53;;;;;;;9.43;5.80;;;2.50;99.90;;;;;;5053383;28;20205;-84
2024/01/26 14:37:42;;;;;;;11.50;6.40;;;2.50;99.90;;;;;;5054310;28;20245;-81
2024/01/26 14:40:29;;;;;;;12.97;5.53;;;2.60;99.90;;;;;;5052682;28;20218;-84
2024/01/26 14:43:16;;;;;;;10.00;5.63;;;2.70;99.90;;;;;;5053718;28;20836;-85
2024/01/26 14:46:08;;;;;;;9.77;6.07;;;2.60;99.90;;;;;;5053267;28;20199;-84
2024/01/26 14:48:56;;;;;;;9.83;5.33;;;2.60;99.90;;;;;;5055085;28;20280;-84